Time;durP1;ratioP1;P1;durP2;ratioP2;P2;SDS_P1;SDS_P2;PMS_P1;PMS_P2;Temp;Humidity;BMP_temperature;BMP_pressure;BME280_temperature;BME280_humidity;BME280_pressure;Samples;Min_cycle;Max_cycle;Signal;HPM_P1;HPM_P2
2021/04/02 00:01:49;;;;;;;;;;;7.60;78.80;;;;;;10364891;28;20004;-84
2021/04/02 00:06:50;;;;;;;;;;;7.60;80.00;;;;;;10365018;28;20378;-84
2021/04/02 00:11:52;;;;;;;;;;;7.40;79.50;;;;;;10364700;28;19975;-83
2021/04/02 00:16:53;;;;;;;;;;;7.30;81.30;;;;;;10364541;28;20001;-83
2021/04/02 00:21:54;;;;;;;;;;;7.30;82.40;;;;;;10364991;28;20320;-83
2021/04/02 00:26:56;;;;;;;;;;;7.20;83.90;;;;;;10337746;28;20016;-83
2021/04/02 00:31:57;;;;;;;;;;;7.10;84.30;;;;;;10346922;28;19975;-84
2021/04/02 00:36:59;;;;;;;;;;;7.10;85.80;;;;;;10366147;28;20012;-83
2021/04/02 00:42:00;;;;;;;;;;;7.00;86.10;;;;;;10372085;28;20359;-83
2021/04/02 00:47:01;;;;;;;;;;;6.90;90.40;;;;;;10372377;28;20008;-83
2021/04/02 00:52:03;;;;;;;;;;;6.90;90.30;;;;;;10371761;28;19925;-83
2021/04/02 00:57:05;;;;;;;;;;;6.90;90.60;;;;;;10372469;28;20008;-84
2021/04/02 01:02:06;;;;;;;;;;;6.70;91.80;;;;;;10372122;28;19921;-84
2021/04/02 01:07:07;;;;;;;;;;;6.70;92.70;;;;;;10371763;28;19968;-84
2021/04/02 01:12:09;;;;;;;;;;;6.70;92.80;;;;;;10371072;28;19964;-83
2021/04/02 01:17:10;;;;;;;;;;;6.60;93.60;;;;;;10370665;28;20369;-83
2021/04/02 01:22:14;;;;;;;;;;;6.60;93.40;;;;;;10370721;28;19961;-83
2021/04/02 01:27:25;;;;;;;;;;;6.40;95.40;;;;;;10370356;28;20534;-83
2021/04/02 01:32:32;;;;;;;;;;;6.40;95.90;;;;;;10370565;28;19921;-83
2021/04/02 01:37:51;;;;;;;;;;;6.30;96.80;;;;;;10370002;28;19984;-83
2021/04/02 01:42:53;;;;;;;;;;;6.30;97.10;;;;;;10370394;28;19927;-84
2021/04/02 01:47:54;;;;;;;;;;;6.30;97.40;;;;;;10368591;28;20036;-83
2021/04/02 01:52:56;;;;;;;;;;;6.20;98.40;;;;;;10369732;28;20004;-83
2021/04/02 01:57:58;;;;;;;;;;;6.10;98.20;;;;;;10369863;28;20279;-83
2021/04/02 02:02:59;;;;;;;;;;;6.00;99.40;;;;;;10373121;28;19921;-83
2021/04/02 02:08:02;;;;;;;;;;;6.00;99.90;;;;;;10376382;28;20399;-83
2021/04/02 02:13:04;;;;;;;;;;;6.00;99.90;;;;;;10390905;28;19992;-83
2021/04/02 02:18:07;;;;;;;;;;;5.90;99.90;;;;;;10352131;28;20368;-83
2021/04/02 02:23:09;;;;;;;;;;;5.80;99.90;;;;;;10375601;28;19965;-84
2021/04/02 02:28:10;;;;;;;;;;;5.80;99.90;;;;;;10362079;28;20040;-83
2021/04/02 02:33:12;;;;;;;;;;;5.90;99.90;;;;;;10375592;28;19921;-83
2021/04/02 02:38:13;;;;;;;;;;;5.90;99.90;;;;;;10374927;28;19933;-83
2021/04/02 02:43:15;;;;;;;;;;;5.80;99.90;;;;;;10375023;28;19921;-83
2021/04/02 02:48:17;;;;;;;;;;;5.70;99.90;;;;;;10360626;28;19971;-83
2021/04/02 02:53:19;;;;;;;;;;;5.40;99.90;;;;;;10364126;28;19960;-83
2021/04/02 02:58:22;;;;;;;;;;;5.30;99.90;;;;;;10360880;28;19921;-83
2021/04/02 03:03:25;;;;;;;;;;;5.30;99.90;;;;;;10360099;28;20351;-84
2021/04/02 03:08:28;;;;;;;;;;;5.30;99.90;;;;;;10351882;28;19976;-83
2021/04/02 03:13:30;;;;;;;;;;;5.30;99.90;;;;;;10367030;28;19956;-84
2021/04/02 03:18:32;;;;;;;;;;;5.30;99.90;;;;;;10367205;28;19968;-84
2021/04/02 03:23:35;;;;;;;;;;;5.40;99.90;;;;;;10367855;28;20072;-83
2021/04/02 03:28:38;;;;;;;;;;;5.30;99.90;;;;;;10366758;28;20027;-83
2021/04/02 03:33:45;;;;;;;;;;;5.20;99.90;;;;;;10366665;28;19980;-83
2021/04/02 03:38:47;;;;;;;;;;;5.30;99.90;;;;;;10366696;28;19921;-83
2021/04/02 03:43:49;;;;;;;;;;;5.40;99.90;;;;;;10348801;28;19960;-83
2021/04/02 03:48:52;;;;;;;;;;;5.50;99.90;;;;;;10348430;28;19964;-83
2021/04/02 03:53:56;;;;;;;;;;;5.60;99.90;;;;;;10365445;28;20021;-83
2021/04/02 03:58:58;;;;;;;;;;;5.70;99.90;;;;;;10365508;28;19922;-83
2021/04/02 04:04:00;;;;;;;;;;;5.70;99.90;;;;;;10365853;28;19960;-83
2021/04/02 04:09:10;;;;;;;;;;;5.80;99.90;;;;;;10348578;28;20331;-84
2021/04/02 04:14:12;;;;;;;;;;;6.00;99.90;;;;;;10371401;28;19921;-84
2021/04/02 04:19:16;;;;;;;;;;;5.90;99.90;;;;;;10374296;28;19929;-83
2021/04/02 04:24:19;;;;;;;;;;;5.90;99.90;;;;;;10356429;28;19932;-83
2021/04/02 04:29:29;;;;;;;;;;;5.90;99.90;;;;;;10340053;28;19960;-83
2021/04/02 04:34:31;;;;;;;;;;;5.90;99.90;;;;;;10372867;28;19925;-83
2021/04/02 04:39:33;;;;;;;;;;;6.10;99.90;;;;;;10373392;28;19921;-83
2021/04/02 04:44:34;;;;;;;;;;;6.20;99.90;;;;;;10372441;28;20399;-83
2021/04/02 04:49:36;;;;;;;;;;;6.20;99.90;;;;;;10372489;28;20382;-83
2021/04/02 04:54:37;;;;;;;;;;;6.20;99.90;;;;;;10372615;28;20013;-83
2021/04/02 04:59:40;;;;;;;;;;;6.20;99.90;;;;;;10372735;28;19925;-83
2021/04/02 05:04:42;;;;;;;;;;;6.20;99.90;;;;;;10372554;28;19991;-84
2021/04/02 05:09:44;;;;;;;;;;;6.10;99.90;;;;;;10372156;28;19957;-84
2021/04/02 05:14:47;;;;;;;;;;;6.20;99.90;;;;;;10371680;28;20351;-84
2021/04/02 05:19:49;;;;;;;;;;;6.30;99.90;;;;;;10371801;28;20336;-84
2021/04/02 05:24:51;;;;;;;;;;;6.30;99.90;;;;;;10371023;28;19959;-83
2021/04/02 05:29:52;;;;;;;;;;;6.30;99.90;;;;;;10371075;28;20637;-84
2021/04/02 05:34:54;;;;;;;;;;;6.20;99.90;;;;;;10370783;28;19921;-83
2021/04/02 05:39:55;;;;;;;;;;;6.20;99.90;;;;;;10386357;28;19926;-85
2021/04/02 05:44:59;;;;;;;;;;;6.30;99.90;;;;;;10371051;28;19922;-84
2021/04/02 05:50:01;;;;;;;;;;;6.40;99.90;;;;;;10371365;28;19968;-84
2021/04/02 05:55:03;;;;;;;;;;;6.60;99.90;;;;;;10352748;28;19925;-84
2021/04/02 06:00:04;;;;;;;;;;;6.70;99.90;;;;;;10369411;28;19929;-84
2021/04/02 06:05:07;;;;;;;;;;;6.80;99.90;;;;;;10369797;28;19921;-84
2021/04/02 06:10:09;;;;;;;;;;;6.80;99.90;;;;;;10369528;28;20382;-84
2021/04/02 06:15:11;;;;;;;;;;;7.00;99.90;;;;;;10369892;28;19961;-84
2021/04/02 06:20:13;;;;;;;;;;;7.10;99.90;;;;;;10371206;28;19948;-82
2021/04/02 06:25:17;;;;;;;;;;;7.20;99.90;;;;;;10375367;28;19988;-84
2021/04/02 06:30:18;;;;;;;;;;;7.20;99.90;;;;;;10369077;28;19925;-86
2021/04/02 06:35:23;;;;;;;;;;;7.40;99.90;;;;;;10364543;28;19925;-85
2021/04/02 06:40:24;;;;;;;;;;;7.60;99.90;;;;;;10350418;28;20284;-85
2021/04/02 06:45:26;;;;;;;;;;;7.70;99.90;;;;;;10367904;28;19928;-85
2021/04/02 06:50:28;;;;;;;;;;;7.70;98.80;;;;;;10375453;28;20035;-85
2021/04/02 06:55:29;;;;;;;;;;;7.70;96.00;;;;;;10384437;28;20378;-85
2021/04/02 07:00:36;;;;;;;;;;;7.90;95.50;;;;;;10366616;28;20008;-85
2021/04/02 07:05:39;;;;;;;;;;;7.80;94.30;;;;;;10366074;28;19925;-85
2021/04/02 07:10:41;;;;;;;;;;;8.00;93.00;;;;;;10365988;28;20366;-85
2021/04/02 07:15:42;;;;;;;;;;;7.90;92.10;;;;;;10366034;28;20004;-84
2021/04/02 07:20:44;;;;;;;;;;;8.00;92.30;;;;;;10347640;28;20138;-84
2021/04/02 07:25:46;;;;;;;;;;;8.00;91.60;;;;;;10366851;28;19996;-86
2021/04/02 07:30:49;;;;;;;;;;;8.20;90.70;;;;;;10364936;28;20383;-86
2021/04/02 07:35:58;;;;;;;;;;;8.30;89.10;;;;;;10347858;28;20016;-85
2021/04/02 07:41:07;;;;;;;;;;;8.20;88.00;;;;;;10388453;28;19971;-85
2021/04/02 07:46:13;;;;;;;;;;;8.10;88.60;;;;;;10375177;28;19997;-85
2021/04/02 07:51:15;;;;;;;;;;;8.10;87.30;;;;;;10365742;28;20403;-86
2021/04/02 07:56:35;;;;;;;;;;;8.20;88.20;;;;;;10362830;28;19979;-85
2021/04/02 08:01:36;;;;;;;;;;;8.30;86.00;;;;;;10347337;28;19975;-85
2021/04/02 08:06:39;;;;;;;;;;;8.50;85.10;;;;;;10365114;28;19925;-85
2021/04/02 08:11:44;;;;;;;;;;;8.70;83.10;;;;;;10364939;28;19984;-85
2021/04/02 08:16:46;;;;;;;;;;;8.70;82.10;;;;;;10363429;28;19929;-84
2021/04/02 08:22:01;;;;;;;;;;;8.70;81.50;;;;;;10381805;28;19975;-86
2021/04/02 08:27:04;;;;;;;;;;;8.70;81.50;;;;;;10378724;28;19964;-86
2021/04/02 08:32:07;;;;;;;;;;;8.80;81.50;;;;;;10366335;28;19928;-86
2021/04/02 08:37:12;;;;;;;;;;;8.90;79.20;;;;;;10363482;28;19928;-85
2021/04/02 08:42:20;;;;;;;;;;;8.80;79.80;;;;;;10349831;28;20399;-86
2021/04/02 08:47:30;;;;;;;;;;;9.00;80.80;;;;;;10369195;28;20322;-85
2021/04/02 08:52:35;;;;;;;;;;;8.90;80.40;;;;;;10369010;28;19972;-86
2021/04/02 08:57:38;;;;;;;;;;;8.90;78.10;;;;;;10351427;28;20375;-85
2021/04/02 09:02:41;;;;;;;;;;;9.00;78.10;;;;;;10373080;28;20454;-85
2021/04/02 09:07:56;;;;;;;;;;;8.90;76.60;;;;;;10374360;28;19921;-85
2021/04/02 09:13:03;;;;;;;;;;;9.10;76.00;;;;;;10354577;28;19979;-86
2021/04/02 09:18:17;;;;;;;;;;;9.40;73.70;;;;;;10382781;28;20468;-87
2021/04/02 09:23:19;;;;;;;;;;;9.70;73.40;;;;;;10416468;28;19971;-87
2021/04/02 09:28:23;;;;;;;;;;;10.00;70.90;;;;;;10415115;28;19959;-86
2021/04/02 09:33:25;;;;;;;;;;;10.00;70.60;;;;;;10378304;28;19929;-86
2021/04/02 09:38:26;;;;;;;;;;;9.90;70.20;;;;;;10374386;28;20020;-86
2021/04/02 09:43:41;;;;;;;;;;;10.00;70.00;;;;;;10374239;28;19928;-86
2021/04/02 09:48:42;;;;;;;;;;;10.00;68.90;;;;;;10373953;28;19960;-86
2021/04/02 09:53:43;;;;;;;;;;;10.30;67.50;;;;;;10372195;28;19957;-86
2021/04/02 09:58:44;;;;;;;;;;;11.00;66.10;;;;;;10373609;28;20012;-87
2021/04/02 10:03:46;;;;;;;;;;;11.30;62.90;;;;;;10373173;28;19960;-87
2021/04/02 10:08:48;;;;;;;;;;;11.60;61.70;;;;;;10371883;28;19922;-87
2021/04/02 10:13:49;;;;;;;;;;;11.70;60.30;;;;;;10372003;28;19975;-87
2021/04/02 10:18:51;;;;;;;;;;;12.20;58.30;;;;;;10371269;28;20344;-87
2021/04/02 10:23:52;;;;;;;;;;;12.10;57.70;;;;;;10372542;28;19921;-87
2021/04/02 10:28:54;;;;;;;;;;;12.00;57.80;;;;;;10371626;28;20479;-88
2021/04/02 10:33:56;;;;;;;;;;;11.90;57.40;;;;;;10371333;28;19971;-89
2021/04/02 10:38:57;;;;;;;;;;;11.50;57.10;;;;;;10370163;28;19921;-89
2021/04/02 10:43:58;;;;;;;;;;;11.20;58.10;;;;;;10363574;28;19957;-88
2021/04/02 10:49:00;;;;;;;;;;;11.30;57.30;;;;;;10370493;28;19984;-89
2021/04/02 10:54:01;;;;;;;;;;;11.50;57.90;;;;;;10371141;28;20003;-88
2021/04/02 10:59:03;;;;;;;;;;;11.80;57.10;;;;;;10370469;28;20040;-88
2021/04/02 11:04:04;;;;;;;;;;;12.10;56.40;;;;;;10370888;28;19952;-87
2021/04/02 11:09:08;;;;;;;;;;;11.70;55.80;;;;;;10357954;28;19967;-87
2021/04/02 11:14:09;;;;;;;;;;;11.40;57.00;;;;;;10370117;28;19967;-88
2021/04/02 11:19:11;;;;;;;;;;;11.90;56.20;;;;;;10369698;28;19921;-89
2021/04/02 11:24:12;;;;;;;;;;;12.00;55.10;;;;;;10352021;28;19964;-89
2021/04/02 11:29:13;;;;;;;;;;;12.00;55.20;;;;;;10368977;28;19956;-88
2021/04/02 11:34:15;;;;;;;;;;;12.20;55.40;;;;;;10374725;28;19929;-88
2021/04/02 11:39:16;;;;;;;;;;;12.30;54.70;;;;;;10369626;28;19968;-88
2021/04/02 11:44:17;;;;;;;;;;;12.10;54.60;;;;;;10368943;28;19976;-89
2021/04/02 11:49:19;;;;;;;;;;;12.10;54.50;;;;;;10369271;28;19926;-88
2021/04/02 11:54:20;;;;;;;;;;;12.40;54.00;;;;;;10368693;28;20331;-88
2021/04/02 11:59:21;;;;;;;;;;;12.40;54.20;;;;;;10368317;28;20367;-88
2021/04/02 12:04:23;;;;;;;;;;;12.00;54.00;;;;;;10368898;28;19971;-88
2021/04/02 12:09:24;;;;;;;;;;;12.20;54.60;;;;;;10368377;28;20457;-87
2021/04/02 12:14:25;;;;;;;;;;;12.50;54.20;;;;;;10368450;28;20032;-88
2021/04/02 12:19:27;;;;;;;;;;;13.00;53.20;;;;;;10368019;28;20004;-87
2021/04/02 12:24:29;;;;;;;;;;;13.40;53.20;;;;;;10368216;28;20446;-88
2021/04/02 12:29:30;;;;;;;;;;;12.90;53.40;;;;;;10367716;28;19928;-88
2021/04/02 12:34:35;;;;;;;;;;;12.90;53.60;;;;;;10372732;28;19971;-88
2021/04/02 12:39:36;;;;;;;;;;;13.10;52.90;;;;;;10375903;28;19921;-88
2021/04/02 12:44:37;;;;;;;;;;;13.10;52.00;;;;;;10375748;28;19968;-88
2021/04/02 12:49:39;;;;;;;;;;;13.20;51.30;;;;;;10375489;28;19921;-88
2021/04/02 12:54:40;;;;;;;;;;;13.40;51.80;;;;;;10375176;28;20549;-88
2021/04/02 12:59:42;;;;;;;;;;;13.20;51.00;;;;;;10374771;28;19928;-88
2021/04/02 13:04:43;;;;;;;;;;;13.00;51.40;;;;;;10375738;28;19971;-88
2021/04/02 13:09:45;;;;;;;;;;;13.00;52.00;;;;;;10375018;28;19980;-88
2021/04/02 13:14:47;;;;;;;;;;;13.10;50.10;;;;;;10374534;28;20375;-88
2021/04/02 13:19:48;;;;;;;;;;;13.20;51.00;;;;;;10374126;28;19956;-88
2021/04/02 13:24:50;;;;;;;;;;;13.20;49.90;;;;;;10373723;28;19925;-88
2021/04/02 13:29:51;;;;;;;;;;;13.20;50.40;;;;;;10374741;28;19968;-88
2021/04/02 13:34:52;;;;;;;;;;;13.20;49.40;;;;;;10374516;28;19971;-87
2021/04/02 13:39:54;;;;;;;;;;;13.10;49.50;;;;;;10373275;28;19921;-88
2021/04/02 13:44:55;;;;;;;;;;;13.30;48.90;;;;;;10372008;28;19980;-87
2021/04/02 13:49:56;;;;;;;;;;;13.40;48.80;;;;;;10373616;28;19995;-88
2021/04/02 13:54:58;;;;;;;;;;;13.40;49.10;;;;;;10372738;28;20008;-88
2021/04/02 13:59:59;;;;;;;;;;;13.50;49.20;;;;;;10364713;28;19956;-88
2021/04/02 14:05:01;;;;;;;;;;;13.40;48.60;;;;;;10372387;28;20419;-88
2021/04/02 14:10:04;;;;;;;;;;;13.40;48.70;;;;;;10372954;28;19963;-88
2021/04/02 14:15:08;;;;;;;;;;;13.50;47.40;;;;;;10355064;28;20366;-87
2021/04/02 14:20:11;;;;;;;;;;;13.50;46.80;;;;;;10372107;28;20017;-88
2021/04/02 14:25:14;;;;;;;;;;;13.40;45.80;;;;;;10371967;28;19960;-87
2021/04/02 14:30:17;;;;;;;;;;;13.60;45.70;;;;;;10371611;28;19965;-87
2021/04/02 14:35:19;;;;;;;;;;;13.30;45.40;;;;;;10354680;28;19956;-88
2021/04/02 14:40:20;;;;;;;;;;;13.40;45.10;;;;;;10370681;28;20472;-87
2021/04/02 14:45:22;;;;;;;;;;;13.40;45.20;;;;;;10371697;28;19922;-88
2021/04/02 14:50:25;;;;;;;;;;;13.20;45.90;;;;;;10371498;28;20011;-88
2021/04/02 14:55:26;;;;;;;;;;;13.10;47.40;;;;;;10369778;28;19961;-87
2021/04/02 15:00:28;;;;;;;;;;;13.20;48.50;;;;;;10370612;28;19967;-87
2021/04/02 15:05:29;;;;;;;;;;;13.10;48.80;;;;;;10369842;28;20003;-88
2021/04/02 15:10:31;;;;;;;;;;;13.00;49.40;;;;;;10370520;28;20291;-88
2021/04/02 15:15:33;;;;;;;;;;;12.80;49.70;;;;;;10352270;28;20360;-88
2021/04/02 15:20:34;;;;;;;;;;;12.70;50.00;;;;;;10369590;28;19921;-88
2021/04/02 15:25:35;;;;;;;;;;;12.50;50.70;;;;;;10366928;28;20951;-78
2021/04/02 15:30:37;;;;;;;;;;;12.50;51.00;;;;;;10363289;28;19967;-78
2021/04/02 15:35:38;;;;;;;;;;;12.30;51.30;;;;;;10359923;28;19926;-78
2021/04/02 15:40:40;;;;;;;;;;;12.20;51.60;;;;;;10359373;28;20334;-78
2021/04/02 15:45:41;;;;;;;;;;;12.10;52.00;;;;;;10359646;28;19960;-78
2021/04/02 15:50:42;;;;;;;;;;;11.90;52.50;;;;;;10360063;28;19921;-78
2021/04/02 15:55:44;;;;;;;;;;;11.70;53.40;;;;;;10358041;28;20023;-78
2021/04/02 16:00:45;;;;;;;;;;;11.50;52.80;;;;;;10362726;28;19961;-78
2021/04/02 16:05:46;;;;;;;;;;;11.80;52.60;;;;;;10364404;28;20004;-78
2021/04/02 16:10:48;;;;;;;;;;;11.60;52.80;;;;;;10362561;28;19986;-78
2021/04/02 16:15:49;;;;;;;;;;;11.30;53.60;;;;;;10363320;28;20034;-78
2021/04/02 16:27:05;;;;;;;;;;;11.10;53.70;;;;;;10363626;28;20347;-78
2021/04/02 16:32:07;;;;;;;;;;;11.00;53.10;;;;;;10364200;28;19957;-78
2021/04/02 16:37:08;;;;;;;;;;;10.80;53.20;;;;;;10363709;28;20410;-78
2021/04/02 16:42:09;;;;;;;;;;;10.60;53.50;;;;;;10363375;28;19953;-78
2021/04/02 16:47:11;;;;;;;;;;;10.40;54.20;;;;;;10364131;28;19968;-78
2021/04/02 16:52:12;;;;;;;;;;;10.20;55.20;;;;;;10364263;28;20021;-78
2021/04/02 16:57:13;;;;;;;;;;;10.10;55.30;;;;;;10364509;28;19928;-78
2021/04/02 17:02:15;;;;;;;;;;;9.90;55.50;;;;;;10349317;28;19992;-78
2021/04/02 17:07:16;;;;;;;;;;;9.70;55.30;;;;;;10363959;28;19921;-78
2021/04/02 17:12:18;;;;;;;;;;;9.40;56.00;;;;;;10346667;28;19956;-78
2021/04/02 17:17:23;;;;;;;;;;;9.20;56.20;;;;;;10364755;28;19961;-78
2021/04/02 17:22:25;;;;;;;;;;;9.00;55.80;;;;;;10370263;28;19933;-78
2021/04/02 17:27:26;;;;;;;;;;;8.90;57.30;;;;;;10371613;28;19961;-78
2021/04/02 17:32:28;;;;;;;;;;;8.50;57.90;;;;;;10371547;28;19971;-78
2021/04/02 17:37:30;;;;;;;;;;;8.30;58.20;;;;;;10371716;28;19972;-78
2021/04/02 17:42:31;;;;;;;;;;;8.20;59.00;;;;;;10372963;28;19968;-78
2021/04/02 17:47:32;;;;;;;;;;;8.10;59.30;;;;;;10370884;28;20437;-78
2021/04/02 17:52:34;;;;;;;;;;;7.80;60.00;;;;;;10353008;28;19925;-78
2021/04/02 17:57:36;;;;;;;;;;;7.70;60.80;;;;;;10353767;28;20002;-78
2021/04/02 18:02:37;;;;;;;;;;;7.70;61.50;;;;;;10370284;28;20794;-78
2021/04/02 18:07:39;;;;;;;;;;;7.50;61.30;;;;;;10369832;28;20568;-78
2021/04/02 18:12:40;;;;;;;;;;;7.40;62.20;;;;;;10370095;28;20010;-78
2021/04/02 18:17:41;;;;;;;;;;;7.30;62.90;;;;;;10369179;28;19960;-78
2021/04/02 18:22:44;;;;;;;;;;;7.40;62.50;;;;;;10369242;28;20036;-78
2021/04/02 18:27:45;;;;;;;;;;;7.40;63.00;;;;;;10369349;28;19921;-78
2021/04/02 18:32:47;;;;;;;;;;;7.30;63.30;;;;;;10368183;28;19925;-78
2021/04/02 18:37:48;;;;;;;;;;;7.40;63.60;;;;;;10351733;28;19921;-78
2021/04/02 18:42:50;;;;;;;;;;;7.40;63.50;;;;;;10351681;28;19965;-78
2021/04/02 18:47:51;;;;;;;;;;;7.20;63.60;;;;;;10367859;28;19998;-78
2021/04/02 18:52:52;;;;;;;;;;;7.10;63.90;;;;;;10367766;28;19925;-78
2021/04/02 18:57:54;;;;;;;;;;;7.10;63.60;;;;;;10367310;28;19928;-78
2021/04/02 19:02:57;;;;;;;;;;;7.10;64.10;;;;;;10367206;28;19956;-78
2021/04/02 19:07:58;;;;;;;;;;;7.30;64.40;;;;;;10350566;28;20351;-78
2021/04/02 19:12:59;;;;;;;;;;;7.40;64.20;;;;;;10367673;28;20438;-78
2021/04/02 19:18:01;;;;;;;;;;;7.50;64.40;;;;;;10367899;28;19968;-78
2021/04/02 19:23:02;;;;;;;;;;;7.50;63.90;;;;;;10368195;28;19962;-78
2021/04/02 19:28:03;;;;;;;;;;;7.60;63.50;;;;;;10341477;28;20311;-78
2021/04/02 19:33:05;;;;;;;;;;;7.60;63.30;;;;;;10326687;28;19965;-78
2021/04/02 19:38:06;;;;;;;;;;;7.50;63.60;;;;;;10332561;28;19991;-78
2021/04/02 19:43:08;;;;;;;;;;;7.50;62.80;;;;;;10364213;28;20453;-77
2021/04/02 19:48:09;;;;;;;;;;;7.60;63.10;;;;;;10364891;28;19925;-77
2021/04/02 19:53:11;;;;;;;;;;;7.70;62.10;;;;;;10364863;28;19968;-77
2021/04/02 19:58:12;;;;;;;;;;;7.50;61.60;;;;;;10364351;28;19980;-78
2021/04/02 20:03:14;;;;;;;;;;;7.40;62.50;;;;;;10364914;28;19922;-77
2021/04/02 20:08:17;;;;;;;;;;;7.20;62.20;;;;;;10363277;28;19960;-78
2021/04/02 20:13:19;;;;;;;;;;;7.20;62.30;;;;;;10364643;28;20406;-78
2021/04/02 20:18:20;;;;;;;;;;;7.20;61.90;;;;;;10363352;28;19987;-78
2021/04/02 20:23:21;;;;;;;;;;;7.30;61.60;;;;;;10364493;28;20338;-78
2021/04/02 20:28:23;;;;;;;;;;;7.20;61.50;;;;;;10364810;28;20031;-77
2021/04/02 20:33:24;;;;;;;;;;;7.30;62.10;;;;;;10365280;28;19968;-77
2021/04/02 20:38:27;;;;;;;;;;;7.30;62.00;;;;;;10363919;28;20437;-78
2021/04/02 20:43:28;;;;;;;;;;;7.40;61.90;;;;;;10365604;28;19984;-78
2021/04/02 20:48:30;;;;;;;;;;;7.40;62.70;;;;;;10347820;28;20013;-78
2021/04/02 20:53:31;;;;;;;;;;;7.40;62.20;;;;;;10366179;28;19969;-78
2021/04/02 20:59:56;;;;;;;;;;;7.40;63.40;;;;;;10607506;27;19916;-67
2021/04/02 21:04:58;;;;;;;;;;;7.30;62.70;;;;;;10601297;27;20034;-67
2021/04/02 21:10:00;;;;;;;;;;;7.20;63.50;;;;;;10605880;28;20014;-67
2021/04/02 21:15:02;;;;;;;;;;;7.30;63.50;;;;;;10621003;27;20003;-67
2021/04/02 21:20:05;;;;;;;;;;;7.20;63.50;;;;;;10605405;28;19962;-68
2021/04/02 21:25:08;;;;;;;;;;;6.90;63.60;;;;;;10604449;28;19928;-68
2021/04/02 21:30:10;;;;;;;;;;;6.90;63.00;;;;;;10606404;28;20047;-68
2021/04/02 21:35:12;;;;;;;;;;;6.80;63.00;;;;;;10588794;28;20035;-68
2021/04/02 21:40:15;;;;;;;;;;;6.90;62.90;;;;;;10606200;28;19928;-68
2021/04/02 21:45:17;;;;;;;;;;;6.90;61.70;;;;;;10606092;28;19973;-67
2021/04/02 21:50:20;;;;;;;;;;;6.90;60.80;;;;;;10603335;28;20451;-67
2021/04/02 21:55:24;;;;;;;;;;;7.00;61.60;;;;;;10601787;28;20018;-67
2021/04/02 22:00:27;;;;;;;;;;;7.10;60.80;;;;;;10602258;28;20010;-67
2021/04/02 22:05:29;;;;;;;;;;;7.20;60.60;;;;;;10601761;28;19978;-67
2021/04/02 22:10:30;;;;;;;;;;;7.20;60.10;;;;;;10577827;28;20337;-67
2021/04/02 22:15:32;;;;;;;;;;;7.20;60.90;;;;;;10557776;28;19959;-67
2021/04/02 22:20:34;;;;;;;;;;;7.20;59.60;;;;;;10574736;28;20006;-67
2021/04/02 22:25:40;;;;;;;;;;;7.20;60.30;;;;;;10574075;28;19923;-67
2021/04/02 22:30:46;;;;;;;;;;;7.20;60.30;;;;;;10573123;28;20016;-67
2021/04/02 22:35:48;;;;;;;;;;;7.20;60.10;;;;;;10574426;28;19924;-67
2021/04/02 22:40:50;;;;;;;;;;;7.20;60.80;;;;;;10572708;28;19931;-67
2021/04/02 22:45:52;;;;;;;;;;;7.20;61.00;;;;;;10555153;28;19924;-67
2021/04/02 22:50:54;;;;;;;;;;;7.10;61.40;;;;;;10572854;28;19974;-67
2021/04/02 22:55:56;;;;;;;;;;;7.10;61.80;;;;;;10573834;28;20399;-67
2021/04/02 23:01:02;;;;;;;;;;;7.20;62.20;;;;;;10555385;28;19982;-67
2021/04/02 23:06:05;;;;;;;;;;;7.20;62.60;;;;;;10573901;28;19932;-67
2021/04/02 23:11:07;;;;;;;;;;;7.20;62.60;;;;;;10573208;27;20007;-67
2021/04/02 23:16:08;;;;;;;;;;;7.10;63.40;;;;;;10569561;28;19928;-67
2021/04/02 23:21:09;;;;;;;;;;;7.10;63.90;;;;;;10569482;28;20018;-66
2021/04/02 23:26:11;;;;;;;;;;;7.00;64.50;;;;;;10570494;28;19928;-67
2021/04/02 23:31:12;;;;;;;;;;;7.00;64.70;;;;;;10570092;28;19931;-67
2021/04/02 23:36:13;;;;;;;;;;;7.10;64.90;;;;;;10570405;28;20010;-67
2021/04/02 23:41:15;;;;;;;;;;;7.00;65.50;;;;;;10569123;28;19978;-67
2021/04/02 23:46:16;;;;;;;;;;;7.00;66.00;;;;;;10569884;28;20237;-67
2021/04/02 23:51:17;;;;;;;;;;;6.80;67.60;;;;;;10570241;28;19930;-67
2021/04/02 23:56:18;;;;;;;;;;;6.90;67.80;;;;;;10569976;28;19923;-67
